Grandview Heights, North Carolina
Current Conditions -  °F | °C
As of 5:35 PM on Sunday 21 Dec 2014 (Local Time) from KTNB Reporting Station
Haze Haze  
Wind Chill: 30°   Ceiling: 600
Heat Index: 36°   Visibility: 5mi
Dew Point: 35°   Wind: 7mph
Humidity: 97%   Direction: 130°SE
Pressure: 30.14"   Gusts: NA
Location:  36.2085°N, 81.6605°W
Report Text: KTNB 212235Z AUTO 13006KT 5SM BR OVC006 02/02 A3014 RMK AO2 T00200016
Loading
Personal Weather Stations






























Interactive Weather Map New forecast layout! Learn more

10-Day Weather Forecast

Advertisements
Track Severe Weather on mobile